Time;durP1;ratioP1;P1;durP2;ratioP2;P2;SDS_P1;SDS_P2;PMS_P1;PMS_P2;Temp;Humidity;BMP_temperature;BMP_pressure;BME280_temperature;BME280_humidity;BME280_pressure;Samples;Min_cycle;Max_cycle;Signal;HPM_P1;HPM_P2
2021/07/04 00:01:05;;;;;;;6.33;5.83;;;;;;;;;;5014165;28;20318;-64
2021/07/04 00:03:30;;;;;;;7.10;6.03;;;;;;;;;;5014685;28;20222;-64
2021/07/04 00:05:56;;;;;;;6.30;5.70;;;;;;;;;;5014723;28;20230;-65
2021/07/04 00:08:23;;;;;;;6.37;5.80;;;;;;;;;;5014383;28;20310;-64
2021/07/04 00:10:53;;;;;;;6.23;5.63;;;;;;;;;;5013646;28;20677;-64
2021/07/04 00:13:19;;;;;;;5.67;5.17;;;;;;;;;;5014245;28;20790;-63
2021/07/04 00:15:45;;;;;;;6.07;5.57;;;;;;;;;;5014410;28;20466;-64
2021/07/04 00:18:16;;;;;;;6.10;5.53;;;;;;;;;;5014047;28;20965;-64
2021/07/04 00:20:43;;;;;;;6.20;5.70;;;;;;;;;;5024845;28;20562;-65
2021/07/04 00:23:08;;;;;;;6.13;5.63;;;;;;;;;;5033904;28;20905;-63
2021/07/04 00:25:33;;;;;;;6.43;5.83;;;;;;;;;;5034154;28;20535;-64
2021/07/04 00:27:59;;;;;;;6.60;6.00;;;;;;;;;;5032801;28;20284;-63
2021/07/04 00:30:25;;;;;;;6.60;6.00;;;;;;;;;;5033982;28;20629;-64
2021/07/04 00:32:51;;;;;;;6.13;5.30;;;;;;;;;;5034164;28;20533;-65
2021/07/04 00:35:17;;;;;;;6.33;5.83;;;;;;;;;;5018700;28;20464;-64
2021/07/04 00:37:43;;;;;;;9.20;6.33;;;;;;;;;;5014289;28;20227;-64
2021/07/04 00:40:09;;;;;;;7.13;6.53;;;;;;;;;;5013574;28;20466;-64
2021/07/04 00:42:34;;;;;;;7.13;6.50;;;;;;;;;;5014130;28;20587;-64
2021/07/04 00:45:00;;;;;;;6.13;5.60;;;;;;;;;;5013915;28;20597;-62
2021/07/04 00:47:25;;;;;;;6.70;6.10;;;;;;;;;;5014141;28;20226;-64
2021/07/04 00:49:51;;;;;;;5.97;5.33;;;;;;;;;;5014058;28;20257;-64
2021/07/04 00:52:16;;;;;;;6.60;6.00;;;;;;;;;;5012831;28;20228;-65
2021/07/04 00:54:42;;;;;;;6.77;6.17;;;;;;;;;;5013236;28;20645;-64
2021/07/04 00:57:07;;;;;;;7.83;7.13;;;;;;;;;;5013750;28;20222;-64
2021/07/04 00:59:33;;;;;;;6.43;5.90;;;;;;;;;;5013494;28;20218;-64
2021/07/04 01:01:58;;;;;;;8.40;6.67;;;;;;;;;;5014448;28;20230;-65
2021/07/04 01:04:26;;;;;;;6.70;6.10;;;;;;;;;;5016708;28;20233;-64
2021/07/04 01:06:51;;;;;;;7.97;7.07;;;;;;;;;;5018000;28;20465;-65
2021/07/04 01:09:16;;;;;;;7.27;6.57;;;;;;;;;;5017468;28;20523;-64
2021/07/04 01:11:41;;;;;;;6.90;6.40;;;;;;;;;;5017993;28;20705;-65
2021/07/04 01:14:07;;;;;;;5.87;5.43;;;;;;;;;;5017608;28;20221;-64
2021/07/04 01:16:32;;;;;;;7.10;6.50;;;;;;;;;;5018602;28;20528;-64
2021/07/04 01:18:58;;;;;;;6.37;5.80;;;;;;;;;;5037582;28;20234;-65
2021/07/04 01:21:24;;;;;;;7.53;6.83;;;;;;;;;;5032530;28;20567;-65
2021/07/04 01:23:49;;;;;;;6.90;6.20;;;;;;;;;;5017842;28;20249;-64
2021/07/04 01:26:15;;;;;;;6.60;6.10;;;;;;;;;;5017462;28;20481;-64
2021/07/04 01:28:40;;;;;;;7.17;6.57;;;;;;;;;;5017694;28;20222;-64
2021/07/04 01:31:06;;;;;;;6.40;5.90;;;;;;;;;;5017120;28;20222;-64
2021/07/04 01:33:31;;;;;;;6.77;6.13;;;;;;;;;;5017899;28;20276;-64
2021/07/04 01:35:56;;;;;;;6.97;6.30;;;;;;;;;;5037369;28;20226;-65
2021/07/04 01:38:22;;;;;;;7.23;6.53;;;;;;;;;;5037293;28;20218;-63
2021/07/04 01:40:47;;;;;;;6.57;6.07;;;;;;;;;;5037215;28;20222;-63
2021/07/04 01:43:13;;;;;;;7.00;6.40;;;;;;;;;;5036935;28;20229;-64
2021/07/04 01:45:39;;;;;;;7.70;7.00;;;;;;;;;;5036993;28;20222;-64
2021/07/04 01:48:05;;;;;;;6.77;6.17;;;;;;;;;;5036726;28;20232;-63
2021/07/04 01:50:36;;;;;;;6.93;6.23;;;;;;;;;;5037034;28;20452;-65
2021/07/04 01:53:02;;;;;;;7.90;6.70;;;;;;;;;;5037004;28;20225;-64
2021/07/04 01:55:27;;;;;;;7.37;6.77;;;;;;;;;;5021387;28;20808;-65
2021/07/04 01:57:53;;;;;;;6.60;6.00;;;;;;;;;;5017083;28;20237;-64
2021/07/04 02:00:24;;;;;;;6.70;6.00;;;;;;;;;;5016464;28;20520;-65
2021/07/04 02:02:51;;;;;;;7.80;7.10;;;;;;;;;;5017029;28;20484;-65
2021/07/04 02:05:17;;;;;;;7.17;6.57;;;;;;;;;;5016631;28;20493;-64
2021/07/04 02:07:42;;;;;;;7.27;6.57;;;;;;;;;;5016839;28;20500;-64
2021/07/04 02:10:09;;;;;;;7.27;6.57;;;;;;;;;;5016415;28;20230;-63
2021/07/04 02:12:34;;;;;;;6.87;6.30;;;;;;;;;;5016657;28;20211;-64
2021/07/04 02:15:01;;;;;;;7.17;6.57;;;;;;;;;;5016730;28;20466;-65
2021/07/04 02:17:26;;;;;;;6.30;5.70;;;;;;;;;;5015113;28;20226;-64
2021/07/04 02:19:51;;;;;;;8.23;7.50;;;;;;;;;;5020147;28;20471;-64
2021/07/04 02:22:17;;;;;;;6.97;6.47;;;;;;;;;;5035064;28;20252;-65
2021/07/04 02:24:42;;;;;;;6.43;5.93;;;;;;;;;;5036442;28;20233;-64
2021/07/04 02:27:10;;;;;;;8.20;6.90;;;;;;;;;;5035914;28;20310;-63
2021/07/04 02:29:35;;;;;;;6.40;5.80;;;;;;;;;;5036315;28;20299;-64
2021/07/04 02:32:00;;;;;;;7.87;5.90;;;;;;;;;;5036325;28;20468;-63
2021/07/04 02:34:29;;;;;;;6.37;5.87;;;;;;;;;;5028043;28;20305;-64
2021/07/04 02:36:54;;;;;;;6.60;6.10;;;;;;;;;;5016392;28;20408;-64
2021/07/04 02:39:19;;;;;;;7.17;6.27;;;;;;;;;;5016049;28;20560;-64
2021/07/04 02:41:45;;;;;;;6.57;5.97;;;;;;;;;;5016006;28;20647;-64
2021/07/04 02:44:10;;;;;;;11.00;6.10;;;;;;;;;;5015868;28;20222;-64
2021/07/04 02:46:37;;;;;;;6.53;5.90;;;;;;;;;;5016183;28;20612;-64
2021/07/04 02:49:02;;;;;;;7.60;7.00;;;;;;;;;;5016029;28;20309;-65
2021/07/04 02:51:27;;;;;;;6.63;5.93;;;;;;;;;;5015736;28;20529;-64
2021/07/04 02:53:53;;;;;;;7.23;6.53;;;;;;;;;;5015987;28;20218;-64
2021/07/04 02:56:18;;;;;;;7.30;6.60;;;;;;;;;;5015720;28;20236;-64
2021/07/04 02:58:43;;;;;;;6.83;6.23;;;;;;;;;;5015963;28;20219;-64
2021/07/04 03:01:09;;;;;;;6.67;6.17;;;;;;;;;;5015562;28;20617;-64
2021/07/04 03:03:34;;;;;;;7.87;7.17;;;;;;;;;;5015854;28;20237;-64
2021/07/04 03:05:59;;;;;;;7.20;6.60;;;;;;;;;;5015953;28;20231;-64
2021/07/04 03:08:24;;;;;;;6.50;6.00;;;;;;;;;;5015276;28;20329;-63
2021/07/04 03:10:50;;;;;;;7.13;6.43;;;;;;;;;;5015618;28;20218;-64
2021/07/04 03:13:15;;;;;;;7.03;6.33;;;;;;;;;;5015227;28;20226;-64
2021/07/04 03:15:40;;;;;;;6.97;6.40;;;;;;;;;;5015730;28;20301;-64
2021/07/04 03:18:05;;;;;;;7.10;6.50;;;;;;;;;;5015560;28;20227;-65
2021/07/04 03:20:31;;;;;;;6.70;6.20;;;;;;;;;;5023908;28;20225;-64
2021/07/04 03:22:56;;;;;;;6.97;6.47;;;;;;;;;;5035306;28;20222;-64
2021/07/04 03:25:22;;;;;;;8.67;7.00;;;;;;;;;;5034200;28;20606;-64
2021/07/04 03:27:47;;;;;;;8.00;7.30;;;;;;;;;;5035174;28;20206;-64
2021/07/04 03:30:16;;;;;;;7.23;6.63;;;;;;;;;;5034639;28;20276;-63
2021/07/04 03:32:41;;;;;;;9.30;6.50;;;;;;;;;;5032366;28;20221;-63
2021/07/04 03:35:08;;;;;;;9.90;7.90;;;;;;;;;;5028858;28;20538;-65
2021/07/04 03:37:35;;;;;;;7.40;6.70;;;;;;;;;;5034892;28;20637;-64
2021/07/04 03:40:00;;;;;;;7.30;6.53;;;;;;;;;;5034972;28;20452;-64
2021/07/04 03:42:26;;;;;;;7.50;6.90;;;;;;;;;;5034407;28;20491;-64
2021/07/04 03:44:51;;;;;;;6.93;6.20;;;;;;;;;;5034937;28;20674;-64
2021/07/04 03:47:18;;;;;;;11.40;6.90;;;;;;;;;;5034292;28;20305;-65
2021/07/04 03:49:44;;;;;;;7.67;7.03;;;;;;;;;;5034819;28;20230;-64
2021/07/04 03:52:09;;;;;;;8.00;7.10;;;;;;;;;;5034710;28;20819;-65
2021/07/04 03:54:34;;;;;;;8.07;7.37;;;;;;;;;;5034286;28;20305;-64
2021/07/04 03:56:59;;;;;;;6.60;6.00;;;;;;;;;;5034664;28;20213;-64
2021/07/04 03:59:25;;;;;;;7.83;6.93;;;;;;;;;;5034019;28;20360;-64
2021/07/04 04:01:50;;;;;;;9.37;7.37;;;;;;;;;;5034516;28;20222;-64
2021/07/04 04:04:15;;;;;;;7.63;6.93;;;;;;;;;;5034188;28;20313;-63
2021/07/04 04:06:41;;;;;;;7.90;7.13;;;;;;;;;;5033425;28;20209;-65
2021/07/04 04:09:06;;;;;;;6.93;6.33;;;;;;;;;;5034489;28;20218;-64
2021/07/04 04:11:31;;;;;;;7.17;6.47;;;;;;;;;;5034084;28;20301;-64
2021/07/04 04:13:56;;;;;;;7.47;6.87;;;;;;;;;;5034163;28;20218;-64
2021/07/04 04:16:22;;;;;;;7.90;7.07;;;;;;;;;;5032839;28;20300;-63
2021/07/04 04:18:47;;;;;;;8.40;7.70;;;;;;;;;;5034316;28;20588;-63
2021/07/04 04:21:12;;;;;;;9.03;8.23;;;;;;;;;;5033408;28;20229;-63
2021/07/04 04:23:38;;;;;;;8.70;7.90;;;;;;;;;;5034328;28;20214;-63
2021/07/04 04:26:03;;;;;;;8.27;7.57;;;;;;;;;;5034257;28;20213;-64
2021/07/04 04:28:32;;;;;;;8.30;7.57;;;;;;;;;;5033786;28;20214;-64
2021/07/04 04:30:57;;;;;;;7.80;7.20;;;;;;;;;;5033956;28;20297;-63
2021/07/04 04:33:22;;;;;;;9.20;7.50;;;;;;;;;;5033769;28;20466;-64
2021/07/04 04:35:48;;;;;;;8.40;7.67;;;;;;;;;;5033861;28;20221;-64
2021/07/04 04:38:13;;;;;;;8.90;8.07;;;;;;;;;;5033766;28;20288;-63
2021/07/04 04:40:39;;;;;;;10.03;8.00;;;;;;;;;;5033941;28;20607;-64
2021/07/04 04:43:04;;;;;;;9.30;8.40;;;;;;;;;;5034012;28;20308;-64
2021/07/04 04:45:29;;;;;;;8.83;8.13;;;;;;;;;;5033700;28;20222;-64
2021/07/04 04:47:54;;;;;;;8.33;7.63;;;;;;;;;;5033085;28;20263;-64
2021/07/04 04:50:20;;;;;;;9.40;8.20;;;;;;;;;;5033430;28;20552;-63
2021/07/04 04:52:45;;;;;;;9.07;8.33;;;;;;;;;;5033902;28;20320;-64
2021/07/04 04:55:11;;;;;;;8.60;7.90;;;;;;;;;;5034238;28;20218;-64
2021/07/04 04:57:37;;;;;;;7.97;7.20;;;;;;;;;;5033448;28;20222;-65
2021/07/04 05:00:06;;;;;;;9.30;8.40;;;;;;;;;;5033716;28;20237;-64
2021/07/04 05:02:31;;;;;;;9.10;8.30;;;;;;;;;;5033308;28;20554;-64
2021/07/04 05:04:56;;;;;;;9.53;8.70;;;;;;;;;;5033742;28;20532;-64
2021/07/04 05:07:21;;;;;;;11.43;10.33;;;;;;;;;;5033255;28;20217;-64
2021/07/04 05:09:47;;;;;;;10.17;9.13;;;;;;;;;;5023251;28;20305;-64
2021/07/04 05:12:12;;;;;;;8.13;7.43;;;;;;;;;;5010659;28;20666;-66
2021/07/04 05:14:37;;;;;;;9.13;8.20;;;;;;;;;;5013021;28;20225;-65
2021/07/04 05:17:03;;;;;;;9.57;8.77;;;;;;;;;;5016970;28;20309;-64
2021/07/04 05:19:28;;;;;;;10.30;9.40;;;;;;;;;;5026037;28;20556;-65
2021/07/04 05:21:54;;;;;;;9.40;8.50;;;;;;;;;;5023898;28;20222;-65
2021/07/04 05:24:19;;;;;;;9.60;8.80;;;;;;;;;;5032201;28;20287;-64
2021/07/04 05:26:44;;;;;;;9.80;8.83;;;;;;;;;;5021418;28;20654;-64
2021/07/04 05:29:09;;;;;;;8.87;8.10;;;;;;;;;;5026952;28;20305;-66
2021/07/04 05:31:35;;;;;;;9.30;8.50;;;;;;;;;;5024772;28;20232;-65
2021/07/04 05:34:00;;;;;;;9.77;8.87;;;;;;;;;;5019987;28;20229;-64
2021/07/04 05:36:25;;;;;;;11.20;10.10;;;;;;;;;;5032993;28;20218;-64
2021/07/04 05:38:51;;;;;;;9.90;9.00;;;;;;;;;;5019967;28;20229;-64
2021/07/04 05:41:17;;;;;;;11.10;10.20;;;;;;;;;;5022366;28;20658;-63
2021/07/04 05:43:43;;;;;;;9.97;9.10;;;;;;;;;;5026801;28;20222;-64
2021/07/04 05:46:09;;;;;;;9.90;9.10;;;;;;;;;;5020453;28;20219;-64
2021/07/04 05:48:36;;;;;;;10.63;9.70;;;;;;;;;;5027968;28;20482;-64
2021/07/04 05:51:01;;;;;;;9.73;8.90;;;;;;;;;;5027564;28;20225;-65
2021/07/04 05:53:27;;;;;;;10.70;9.60;;;;;;;;;;5023233;28;20460;-64
2021/07/04 05:55:52;;;;;;;10.20;9.13;;;;;;;;;;5025995;28;20686;-65
2021/07/04 05:58:17;;;;;;;9.33;8.53;;;;;;;;;;5029931;28;20222;-64
2021/07/04 06:00:43;;;;;;;11.57;10.57;;;;;;;;;;5015562;28;20222;-65
2021/07/04 06:03:08;;;;;;;11.63;9.23;;;;;;;;;;5017404;28;20643;-65
2021/07/04 06:05:34;;;;;;;10.80;9.80;;;;;;;;;;5020185;28;20222;-64
2021/07/04 06:07:59;;;;;;;11.27;10.27;;;;;;;;;;5032265;28;20245;-65
2021/07/04 06:10:24;;;;;;;10.87;9.87;;;;;;;;;;5035850;28;20257;-65
2021/07/04 06:12:50;;;;;;;10.80;9.90;;;;;;;;;;5023122;28;20214;-65
2021/07/04 06:15:15;;;;;;;11.47;10.47;;;;;;;;;;5036394;28;20291;-66
2021/07/04 06:17:41;;;;;;;11.30;10.20;;;;;;;;;;5022865;28;20230;-65
2021/07/04 06:20:10;;;;;;;11.10;9.90;;;;;;;;;;5029983;28;20558;-65
2021/07/04 06:22:36;;;;;;;10.80;9.70;;;;;;;;;;5022429;28;20473;-65
2021/07/04 06:25:06;;;;;;;11.40;10.40;;;;;;;;;;5028118;28;20492;-66
2021/07/04 06:27:31;;;;;;;9.77;8.90;;;;;;;;;;5029444;28;20465;-65
2021/07/04 06:29:57;;;;;;;11.73;10.63;;;;;;;;;;5016237;28;20476;-66
2021/07/04 06:32:22;;;;;;;10.83;9.83;;;;;;;;;;5029001;28;20229;-64
2021/07/04 06:34:47;;;;;;;9.80;7.27;;;;;;;;;;5024643;28;20228;-65
2021/07/04 06:37:12;;;;;;;7.97;7.03;;;;;;;;;;5023042;28;20583;-65
2021/07/04 06:39:38;;;;;;;9.00;8.30;;;;;;;;;;5035595;28;20218;-65
2021/07/04 06:42:03;;;;;;;9.80;9.00;;;;;;;;;;5022486;28;20325;-65
2021/07/04 06:44:28;;;;;;;9.57;8.23;;;;;;;;;;5027816;28;20226;-65
2021/07/04 06:46:54;;;;;;;8.90;8.00;;;;;;;;;;5030168;28;20229;-65
2021/07/04 06:49:19;;;;;;;8.77;7.87;;;;;;;;;;5024973;28;20229;-66
2021/07/04 06:51:44;;;;;;;8.40;7.60;;;;;;;;;;5021962;28;20311;-66
2021/07/04 06:54:09;;;;;;;8.50;6.00;;;;;;;;;;5028535;28;20222;-65
2021/07/04 06:56:35;;;;;;;7.10;5.90;;;;;;;;;;5029029;28;20226;-66
2021/07/04 06:59:00;;;;;;;6.30;5.80;;;;;;;;;;5022503;28;20312;-66
2021/07/04 07:01:25;;;;;;;6.60;5.50;;;;;;;;;;5021153;28;20234;-65
2021/07/04 07:03:51;;;;;;;7.13;4.30;;;;;;;;;;5028967;28;20310;-65
2021/07/04 07:06:16;;;;;;;5.00;4.50;;;;;;;;;;5028924;28;20229;-65
2021/07/04 07:08:42;;;;;;;5.43;5.03;;;;;;;;;;5020902;28;20222;-64
2021/07/04 07:11:08;;;;;;;5.40;4.70;;;;;;;;;;5022131;28;20237;-65
2021/07/04 07:13:33;;;;;;;5.53;5.03;;;;;;;;;;5033809;28;20468;-66
2021/07/04 07:15:58;;;;;;;5.63;5.13;;;;;;;;;;5035399;28;20218;-65
2021/07/04 07:18:23;;;;;;;6.20;5.57;;;;;;;;;;5021515;28;20619;-64
2021/07/04 07:20:49;;;;;;;5.43;4.50;;;;;;;;;;5030662;28;20242;-64
2021/07/04 07:23:14;;;;;;;8.70;5.20;;;;;;;;;;5021844;28;20537;-65
2021/07/04 07:25:39;;;;;;;5.43;5.03;;;;;;;;;;5023349;28;20305;-65
2021/07/04 07:28:06;;;;;;;4.77;4.37;;;;;;;;;;5028368;28;20241;-65
2021/07/04 07:30:31;;;;;;;5.30;4.80;;;;;;;;;;5014834;28;20786;-63
2021/07/04 07:32:56;;;;;;;4.80;4.10;;;;;;;;;;5028523;28;20276;-65
2021/07/04 07:35:22;;;;;;;4.60;4.20;;;;;;;;;;5026568;28;20653;-65
2021/07/04 07:37:49;;;;;;;5.20;4.80;;;;;;;;;;5020974;28;20232;-65
2021/07/04 07:40:15;;;;;;;4.93;4.53;;;;;;;;;;5021461;28;20313;-65
2021/07/04 07:42:40;;;;;;;5.43;4.93;;;;;;;;;;5018993;28;20879;-66
2021/07/04 07:45:06;;;;;;;4.53;4.00;;;;;;;;;;5023841;28;20238;-65
2021/07/04 07:47:32;;;;;;;4.60;4.20;;;;;;;;;;5031311;28;20225;-65
2021/07/04 07:50:00;;;;;;;7.03;4.97;;;;;;;;;;5034893;28;20965;-64
2021/07/04 07:52:26;;;;;;;6.23;4.63;;;;;;;;;;5020890;28;20556;-65
2021/07/04 07:54:51;;;;;;;4.40;4.03;;;;;;;;;;5023857;28;20473;-65
2021/07/04 07:57:16;;;;;;;4.47;4.07;;;;;;;;;;5028150;28;20261;-65
2021/07/04 07:59:42;;;;;;;6.00;5.10;;;;;;;;;;5024900;28;20300;-65
2021/07/04 08:02:07;;;;;;;5.10;4.60;;;;;;;;;;5021025;28;20237;-65
2021/07/04 08:04:33;;;;;;;5.20;4.70;;;;;;;;;;5023394;28;20476;-65
2021/07/04 08:06:58;;;;;;;4.80;4.47;;;;;;;;;;5018949;28;20688;-65
2021/07/04 08:09:23;;;;;;;7.10;5.47;;;;;;;;;;5023880;28;20309;-65
2021/07/04 08:11:48;;;;;;;5.93;5.33;;;;;;;;;;5027189;28;20222;-66
2021/07/04 08:14:14;;;;;;;6.13;5.23;;;;;;;;;;5019905;28;20650;-66
2021/07/04 08:16:39;;;;;;;6.20;5.23;;;;;;;;;;5026055;28;20305;-65
2021/07/04 08:19:05;;;;;;;5.60;5.20;;;;;;;;;;5025579;28;20856;-65
2021/07/04 08:21:30;;;;;;;5.47;5.07;;;;;;;;;;5024318;28;20234;-64
2021/07/04 08:23:56;;;;;;;5.60;5.10;;;;;;;;;;5020222;28;20361;-65
2021/07/04 08:26:22;;;;;;;5.73;5.23;;;;;;;;;;5018961;28;20300;-65
2021/07/04 08:28:47;;;;;;;5.13;4.73;;;;;;;;;;5021621;28;20465;-66
2021/07/04 08:31:13;;;;;;;5.90;5.40;;;;;;;;;;5018400;28;20846;-65
2021/07/04 08:33:39;;;;;;;4.90;4.50;;;;;;;;;;5022931;28;20243;-65
2021/07/04 08:36:04;;;;;;;5.43;4.97;;;;;;;;;;5027260;28;20285;-66
2021/07/04 08:38:30;;;;;;;5.43;5.00;;;;;;;;;;5024216;28;20518;-65
2021/07/04 08:40:56;;;;;;;6.40;5.00;;;;;;;;;;5020340;28;20240;-64
2021/07/04 08:43:30;;;;;;;5.73;5.33;;;;;;;;;;5023413;28;20928;-65
2021/07/04 08:45:56;;;;;;;5.83;4.50;;;;;;;;;;5027080;28;20300;-65
2021/07/04 08:48:21;;;;;;;5.30;4.90;;;;;;;;;;5025550;28;21178;-65
2021/07/04 08:50:47;;;;;;;4.97;4.57;;;;;;;;;;5019750;28;20230;-66
2021/07/04 08:53:12;;;;;;;5.33;4.80;;;;;;;;;;5022412;28;20709;-65
2021/07/04 08:55:37;;;;;;;6.07;5.50;;;;;;;;;;5025661;28;20222;-64
2021/07/04 08:58:03;;;;;;;5.43;4.93;;;;;;;;;;5024905;28;20240;-65
2021/07/04 09:00:28;;;;;;;5.93;5.40;;;;;;;;;;5020336;28;20225;-65
2021/07/04 09:02:54;;;;;;;6.23;4.93;;;;;;;;;;5022537;28;20650;-65
2021/07/04 09:05:19;;;;;;;5.80;5.30;;;;;;;;;;5026831;28;20265;-65
2021/07/04 09:07:46;;;;;;;5.23;4.73;;;;;;;;;;5023838;28;20655;-65
2021/07/04 09:10:19;;;;;;;5.77;5.17;;;;;;;;;;5019123;28;20677;-65
2021/07/04 09:12:50;;;;;;;6.57;6.07;;;;;;;;;;5021865;28;20476;-65
2021/07/04 09:15:25;;;;;;;5.43;4.93;;;;;;;;;;5033117;28;20967;-65
2021/07/04 09:17:52;;;;;;;5.90;5.40;;;;;;;;;;5019684;28;20481;-65
2021/07/04 09:20:20;;;;;;;5.00;4.60;;;;;;;;;;5028738;28;20485;-65
2021/07/04 09:22:51;;;;;;;6.10;4.80;;;;;;;;;;5019875;28;20461;-64
2021/07/04 09:25:19;;;;;;;6.53;6.03;;;;;;;;;;5037480;28;20475;-65
2021/07/04 09:28:12;;;;;;;6.47;5.97;;;;;;;;;;5023778;28;20470;-64
2021/07/04 09:30:43;;;;;;;5.70;5.20;;;;;;;;;;5030740;28;20479;-63
2021/07/04 09:33:23;;;;;;;6.30;5.43;;;;;;;;;;5024041;28;20464;-66
2021/07/04 09:36:21;;;;;;;5.50;5.03;;;;;;;;;;5034340;28;20518;-65
2021/07/04 09:38:47;;;;;;;5.77;5.23;;;;;;;;;;5026828;28;20483;-64
2021/07/04 09:41:14;;;;;;;6.10;5.50;;;;;;;;;;5023470;28;20914;-65
2021/07/04 09:43:40;;;;;;;5.40;4.90;;;;;;;;;;5024296;28;20899;-64
2021/07/04 09:46:08;;;;;;;6.20;5.80;;;;;;;;;;5030374;28;20462;-65
2021/07/04 09:48:33;;;;;;;5.83;5.33;;;;;;;;;;5028611;28;20225;-65
2021/07/04 09:51:00;;;;;;;5.13;4.72;;;;;;;;;;5023031;28;20466;-64
2021/07/04 09:53:36;;;;;;;5.40;5.00;;;;;;;;;;5024779;28;20689;-65
2021/07/04 09:56:13;;;;;;;5.97;5.00;;;;;;;;;;5029898;28;20456;-65
2021/07/04 09:58:40;;;;;;;5.40;4.93;;;;;;;;;;5028911;28;20468;-64
2021/07/04 10:01:06;;;;;;;5.23;4.80;;;;;;;;;;5019558;28;20760;-64
2021/07/04 10:03:31;;;;;;;5.43;4.93;;;;;;;;;;5029137;28;20551;-66
2021/07/04 10:06:03;;;;;;;4.97;4.57;;;;;;;;;;5024466;28;20224;-65
2021/07/04 10:08:29;;;;;;;5.13;4.73;;;;;;;;;;5023552;28;20301;-65
2021/07/04 10:11:00;;;;;;;4.80;4.40;;;;;;;;;;5027103;28;20466;-64
2021/07/04 10:13:26;;;;;;;5.17;4.77;;;;;;;;;;5033057;28;20522;-65
2021/07/04 10:15:51;;;;;;;5.33;4.87;;;;;;;;;;5036066;28;20547;-65
2021/07/04 10:18:17;;;;;;;4.50;4.20;;;;;;;;;;5023101;28;20536;-65
2021/07/04 10:20:43;;;;;;;4.83;4.50;;;;;;;;;;5035800;28;20214;-65
2021/07/04 10:23:12;;;;;;;5.63;4.67;;;;;;;;;;5022947;28;20229;-65
2021/07/04 10:25:37;;;;;;;5.00;4.60;;;;;;;;;;5036522;28;20210;-65
2021/07/04 10:28:04;;;;;;;5.40;4.97;;;;;;;;;;5019127;28;20820;-65
2021/07/04 10:30:31;;;;;;;5.07;4.67;;;;;;;;;;5015506;28;20284;-65
2021/07/04 10:33:13;;;;;;;5.10;4.70;;;;;;;;;;5029352;28;20458;-65
2021/07/04 10:36:06;;;;;;;6.03;4.67;;;;;;;;;;5028664;28;20460;-65
2021/07/04 10:38:54;;;;;;;5.90;5.37;;;;;;;;;;5015377;28;20468;-63
2021/07/04 10:41:33;;;;;;;5.30;4.80;;;;;;;;;;5021937;28;20481;-61
2021/07/04 10:44:03;;;;;;;5.57;5.03;;;;;;;;;;5022597;28;20847;-65
2021/07/04 10:46:44;;;;;;;5.07;4.67;;;;;;;;;;5027935;28;20466;-64
2021/07/04 10:49:31;;;;;;;6.17;5.67;;;;;;;;;;5029403;28;20841;-65
2021/07/04 10:52:03;;;;;;;5.23;4.83;;;;;;;;;;5028856;28;20456;-65
2021/07/04 10:54:46;;;;;;;5.97;5.40;;;;;;;;;;5022778;28;20535;-65
2021/07/04 10:57:21;;;;;;;5.97;5.43;;;;;;;;;;5022062;28;20462;-65
2021/07/04 11:00:00;;;;;;;7.17;6.40;;;;;;;;;;5025336;28;21002;-65
2021/07/04 11:02:39;;;;;;;6.07;5.67;;;;;;;;;;5034098;28;20445;-65
2021/07/04 11:05:12;;;;;;;5.20;4.80;;;;;;;;;;5021640;28;20449;-62
2021/07/04 11:08:09;;;;;;;7.70;7.00;;;;;;;;;;5027207;28;20457;-65
2021/07/04 11:10:37;;;;;;;7.80;7.20;;;;;;;;;;5028651;28;20449;-66
2021/07/04 11:13:09;;;;;;;7.03;6.43;;;;;;;;;;5028105;28;20811;-65
2021/07/04 11:15:36;;;;;;;7.10;6.37;;;;;;;;;;5027012;28;20453;-66
2021/07/04 11:18:04;;;;;;;5.77;5.27;;;;;;;;;;5018129;28;20477;-65
2021/07/04 11:20:32;;;;;;;7.30;6.60;;;;;;;;;;5029150;28;20940;-65
2021/07/04 11:22:59;;;;;;;7.47;6.80;;;;;;;;;;5020942;28;20986;-66
2021/07/04 11:25:36;;;;;;;8.10;6.57;;;;;;;;;;5027361;28;20457;-65
2021/07/04 11:28:18;;;;;;;6.30;5.80;;;;;;;;;;5021702;28;20459;-65
2021/07/04 11:30:54;;;;;;;6.80;6.20;;;;;;;;;;5028389;28;20803;-66
2021/07/04 11:33:35;;;;;;;5.53;5.13;;;;;;;;;;5023090;28;20458;-63
2021/07/04 11:36:05;;;;;;;5.23;4.83;;;;;;;;;;5025919;28;20458;-67
2021/07/04 11:38:39;;;;;;;5.87;5.37;;;;;;;;;;5017795;28;20472;-64
2021/07/04 11:41:06;;;;;;;5.77;5.37;;;;;;;;;;5027999;28;20977;-65
2021/07/04 11:43:33;;;;;;;5.97;4.70;;;;;;;;;;5026847;28;20552;-64
2021/07/04 11:46:03;;;;;;;5.40;5.03;;;;;;;;;;5014547;28;20794;-64
2021/07/04 11:48:47;;;;;;;4.93;4.50;;;;;;;;;;5025324;28;20467;-65
2021/07/04 11:51:34;;;;;;;5.73;5.23;;;;;;;;;;5012057;28;20453;-66
2021/07/04 11:54:06;;;;;;;5.47;4.97;;;;;;;;;;5013636;28;20477;-66
2021/07/04 11:56:32;;;;;;;5.37;4.97;;;;;;;;;;5004332;28;20779;-65
2021/07/04 11:59:15;;;;;;;5.20;4.80;;;;;;;;;;5026156;28;20460;-66
2021/07/04 12:01:54;;;;;;;5.60;5.10;;;;;;;;;;5021608;28;20229;-66
2021/07/04 12:04:31;;;;;;;5.57;5.17;;;;;;;;;;5015513;28;20546;-66
2021/07/04 12:06:59;;;;;;;6.17;5.70;;;;;;;;;;5022705;28;20468;-66
2021/07/04 12:09:52;;;;;;;5.93;5.53;;;;;;;;;;5023994;28;20868;-64
2021/07/04 12:12:27;;;;;;;6.60;6.00;;;;;;;;;;5010878;28;20460;-65
2021/07/04 12:14:58;;;;;;;6.53;6.00;;;;;;;;;;5008352;28;20463;-65
2021/07/04 12:17:41;;;;;;;6.37;5.87;;;;;;;;;;5024105;28;20555;-65
2021/07/04 12:20:10;;;;;;;7.00;6.40;;;;;;;;;;5027996;28;20473;-65
2021/07/04 12:22:42;;;;;;;5.80;5.30;;;;;;;;;;5027449;28;20468;-65
2021/07/04 12:25:34;;;;;;;5.50;5.00;;;;;;;;;;5022471;28;20460;-65
2021/07/04 12:28:02;;;;;;;6.00;5.50;;;;;;;;;;5012899;28;20468;-65
2021/07/04 12:30:32;;;;;;;6.07;5.60;;;;;;;;;;5018821;28;20467;-65
2021/07/04 12:33:15;;;;;;;6.00;5.60;;;;;;;;;;5022429;28;20452;-62
2021/07/04 12:35:59;;;;;;;5.77;5.30;;;;;;;;;;5020631;28;20830;-66
2021/07/04 12:38:28;;;;;;;5.80;5.30;;;;;;;;;;5030974;28;20452;-65
2021/07/04 12:40:57;;;;;;;6.60;5.47;;;;;;;;;;5031706;28;20604;-65
2021/07/04 12:43:32;;;;;;;5.83;5.07;;;;;;;;;;5025632;28;20459;-67
2021/07/04 12:46:00;;;;;;;7.17;6.53;;;;;;;;;;5023714;28;20455;-66
2021/07/04 12:48:26;;;;;;;5.40;4.90;;;;;;;;;;5025485;28;20898;-66
2021/07/04 12:51:00;;;;;;;6.27;5.73;;;;;;;;;;5030436;28;20461;-67
2021/07/04 12:53:40;;;;;;;6.75;6.25;;;;;;;;;;5029927;28;20566;-66
2021/07/04 12:56:25;;;;;;;5.07;4.68;;;;;;;;;;5024312;28;20256;-66
2021/07/04 12:58:57;;;;;;;5.32;4.93;;;;;;;;;;5023478;28;20206;-66
2021/07/04 13:01:30;;;;;;;6.13;5.72;;;;;;;;;;5028642;28;20288;-66
2021/07/04 13:04:14;;;;;;;5.40;5.05;;;;;;;;;;5032168;28;20595;-66
2021/07/04 13:06:56;;;;;;;7.80;7.18;;;;;;;;;;5030701;28;20543;-66
2021/07/04 13:09:28;;;;;;;6.15;5.75;;;;;;;;;;5015007;28;20225;-66
2021/07/04 13:12:18;;;;;;;4.88;4.47;;;;;;;;;;5020335;28;20228;-66
2021/07/04 13:14:46;;;;;;;5.88;5.38;;;;;;;;;;5011160;28;20230;-66
2021/07/04 13:17:18;;;;;;;5.50;4.97;;;;;;;;;;5030290;28;20248;-65
2021/07/04 13:19:43;;;;;;;4.68;4.28;;;;;;;;;;5032036;28;20225;-66
2021/07/04 13:22:29;;;;;;;4.82;4.53;;;;;;;;;;5027818;28;20321;-65
2021/07/04 13:24:55;;;;;;;5.40;4.95;;;;;;;;;;5024435;28;20322;-66
2021/07/04 13:27:26;;;;;;;5.30;4.90;;;;;;;;;;5025557;28;20225;-66
2021/07/04 13:29:53;;;;;;;5.13;4.73;;;;;;;;;;5030332;28;20233;-65
2021/07/04 13:32:26;;;;;;;5.27;4.87;;;;;;;;;;5028640;28;20547;-66
2021/07/04 13:34:54;;;;;;;5.40;5.07;;;;;;;;;;5022288;28;20448;-66
2021/07/04 13:37:20;;;;;;;5.87;5.47;;;;;;;;;;5022794;28;20778;-66
2021/07/04 13:39:56;;;;;;;5.23;4.93;;;;;;;;;;5034925;28;20456;-65
2021/07/04 13:42:23;;;;;;;5.27;4.80;;;;;;;;;;5022217;28;20404;-66
2021/07/04 13:44:48;;;;;;;5.80;5.10;;;;;;;;;;5026569;28;20505;-66
2021/07/04 13:47:13;;;;;;;5.87;5.30;;;;;;;;;;5029922;28;20799;-66
2021/07/04 13:49:39;;;;;;;5.20;4.67;;;;;;;;;;5023675;28;20576;-66
2021/07/04 13:52:05;;;;;;;5.20;4.70;;;;;;;;;;5022114;28;20230;-66
2021/07/04 13:54:32;;;;;;;5.43;5.13;;;;;;;;;;5027840;28;20217;-66
2021/07/04 13:56:59;;;;;;;5.40;5.00;;;;;;;;;;5025742;28;20221;-67
2021/07/04 13:59:24;;;;;;;5.10;4.80;;;;;;;;;;5021244;28;20476;-65
2021/07/04 14:01:49;;;;;;;6.37;5.87;;;;;;;;;;5017319;28;20493;-67
2021/07/04 14:04:15;;;;;;;5.73;5.23;;;;;;;;;;5021849;28;20349;-64
2021/07/04 14:06:40;;;;;;;5.93;5.43;;;;;;;;;;5033143;28;20222;-65
2021/07/04 14:09:05;;;;;;;5.97;5.47;;;;;;;;;;5021110;28;20655;-66
2021/07/04 14:11:31;;;;;;;9.60;5.80;;;;;;;;;;5023809;28;20226;-65
2021/07/04 14:13:56;;;;;;;5.90;5.30;;;;;;;;;;5009434;28;20315;-64
2021/07/04 14:16:22;;;;;;;6.40;5.80;;;;;;;;;;5025815;28;20222;-66
2021/07/04 14:18:47;;;;;;;5.43;5.00;;;;;;;;;;5025276;28;20375;-66
2021/07/04 14:21:12;;;;;;;8.10;7.40;;;;;;;;;;5022802;28;20708;-64
2021/07/04 14:23:38;;;;;;;6.27;5.87;;;;;;;;;;5027792;28;20313;-65
2021/07/04 14:26:03;;;;;;;6.20;5.80;;;;;;;;;;5030117;28;20305;-65
2021/07/04 14:28:29;;;;;;;7.30;6.57;;;;;;;;;;5017464;28;20465;-65
2021/07/04 14:30:55;;;;;;;5.90;5.47;;;;;;;;;;5029261;28;20233;-66
2021/07/04 14:33:20;;;;;;;6.17;5.67;;;;;;;;;;5023739;28;20465;-66
2021/07/04 14:35:45;;;;;;;6.43;5.53;;;;;;;;;;5022612;28;20661;-65
2021/07/04 14:38:11;;;;;;;5.23;4.80;;;;;;;;;;5029557;28;20227;-65
2021/07/04 14:40:37;;;;;;;5.77;5.37;;;;;;;;;;5014995;28;20241;-64
2021/07/04 14:43:02;;;;;;;5.33;4.90;;;;;;;;;;5022757;28;20241;-66
2021/07/04 14:45:28;;;;;;;5.40;5.00;;;;;;;;;;5022639;28;20933;-66